Time;durP1;ratioP1;P1;durP2;ratioP2;P2;SDS_P1;SDS_P2;PMS_P1;PMS_P2;Temp;Humidity;BMP_temperature;BMP_pressure;BME280_temperature;BME280_humidity;BME280_pressure;Samples;Min_cycle;Max_cycle;Signal;HPM_P1;HPM_P2
2023/04/27 00:00:25;;;;;;;10.15;4.35;;;8.90;68.80;;;8.08;53.96;100947.91;5008924;28;20049;-77
2023/04/27 00:02:53;;;;;;;13.07;5.07;;;8.90;69.10;;;8.04;54.12;100955.41;5010324;28;20133;-77
2023/04/27 00:05:20;;;;;;;13.10;5.10;;;8.80;69.10;;;8.02;54.21;100960.09;5014531;28;20038;-76
2023/04/27 00:07:47;;;;;;;10.07;5.35;;;8.80;69.20;;;7.99;53.81;100960.47;5008674;28;20137;-77
2023/04/27 00:10:15;;;;;;;9.50;5.07;;;8.80;69.00;;;7.97;53.64;100951.88;5008868;28;20441;-78
2023/04/27 00:12:42;;;;;;;8.40;4.88;;;8.80;68.90;;;7.94;54.01;100954.88;5019521;28;20663;-76
2023/04/27 00:15:11;;;;;;;9.82;4.80;;;8.70;69.20;;;7.90;53.98;100950.91;4997486;28;20180;-76
2023/04/27 00:17:38;;;;;;;10.55;4.97;;;8.70;69.20;;;7.85;54.12;100953.28;5016918;28;20111;-78
2023/04/27 00:20:10;;;;;;;7.57;4.55;;;8.60;69.30;;;7.82;54.40;100959.00;5008552;28;20053;-76
2023/04/27 00:22:38;;;;;;;9.27;4.85;;;8.60;69.40;;;7.79;54.39;100964.66;5009240;28;20049;-78
2023/04/27 00:25:06;;;;;;;8.63;4.95;;;8.60;69.70;;;7.75;54.27;100953.56;5015605;28;20675;-75
2023/04/27 00:27:33;;;;;;;13.48;5.47;;;8.50;69.60;;;7.73;54.34;100960.88;5009573;28;20115;-78
2023/04/27 00:30:00;;;;;;;9.00;5.20;;;8.50;69.60;;;7.69;54.54;100954.28;4990938;28;20042;-78
2023/04/27 00:32:29;;;;;;;9.10;4.78;;;8.40;69.60;;;7.65;54.54;100951.16;5016166;28;20121;-77
2023/04/27 00:34:56;;;;;;;11.05;4.32;;;8.40;69.80;;;7.62;54.72;100950.72;5015323;28;20049;-76
2023/04/27 00:37:23;;;;;;;9.45;4.82;;;8.40;70.00;;;7.56;54.83;100954.06;5008250;28;20042;-76
2023/04/27 00:39:50;;;;;;;11.07;5.50;;;8.30;70.10;;;7.52;54.79;100950.16;5003855;28;20149;-77
2023/04/27 00:42:18;;;;;;;11.52;5.25;;;8.30;70.20;;;7.49;54.89;100962.75;5002705;28;20050;-77
2023/04/27 00:44:46;;;;;;;12.35;5.82;;;8.30;70.10;;;7.45;54.92;100957.97;5009992;28;20048;-76
2023/04/27 00:47:13;;;;;;;10.65;5.50;;;8.20;70.20;;;7.43;54.91;100965.31;4990438;28;20044;-78
2023/04/27 00:49:42;;;;;;;10.45;5.10;;;8.20;70.30;;;7.41;55.09;100967.28;4993852;28;20037;-78
2023/04/27 00:52:09;;;;;;;10.85;4.97;;;8.20;70.70;;;7.38;55.33;100962.38;5018168;28;20045;-77
2023/04/27 00:54:36;;;;;;;9.50;5.63;;;8.10;70.70;;;7.34;55.19;100971.69;5011072;28;20052;-76
2023/04/27 00:57:04;;;;;;;10.75;5.90;;;8.10;70.70;;;7.31;54.98;100964.88;5007286;28;20076;-77
2023/04/27 00:59:31;;;;;;;16.33;5.50;;;8.00;70.50;;;7.28;55.31;100980.34;5012120;28;20041;-78
2023/04/27 01:01:59;;;;;;;13.13;5.75;;;8.00;70.70;;;7.23;55.21;100973.75;5006368;28;20140;-76
2023/04/27 01:04:27;;;;;;;13.43;5.97;;;8.00;70.80;;;7.20;55.52;100976.75;5022774;28;20111;-77
2023/04/27 01:06:56;;;;;;;13.48;5.57;;;7.90;70.90;;;7.17;55.44;100979.75;5009245;28;20132;-78
2023/04/27 01:09:24;;;;;;;10.17;5.57;;;7.90;71.10;;;7.15;55.51;100975.63;5008415;28;20498;-77
2023/04/27 01:11:52;;;;;;;11.85;5.30;;;7.90;71.10;;;7.10;55.60;100976.16;5024500;28;20049;-78
2023/04/27 01:14:19;;;;;;;12.52;5.97;;;7.80;71.30;;;7.07;55.41;100975.66;5028325;28;20053;-78
2023/04/27 01:16:46;;;;;;;9.48;5.43;;;7.80;71.30;;;7.04;55.70;100971.56;5023186;28;20863;-78
2023/04/27 01:19:13;;;;;;;13.10;6.40;;;7.80;71.30;;;7.00;55.87;100974.72;5024543;28;20056;-77
2023/04/27 01:21:41;;;;;;;13.40;6.22;;;7.80;71.50;;;6.96;55.53;100968.94;5004644;28;20138;-76
2023/04/27 01:24:10;;;;;;;11.90;5.95;;;7.70;71.50;;;6.93;55.89;100979.91;5023162;28;20049;-78
2023/04/27 01:26:38;;;;;;;10.70;5.45;;;7.70;71.50;;;6.91;55.90;100979.25;5008723;28;20049;-76
2023/04/27 01:29:05;;;;;;;12.60;6.18;;;7.70;71.60;;;6.87;55.69;100978.75;5018001;28;20045;-76
2023/04/27 01:31:33;;;;;;;9.25;5.53;;;7.60;71.50;;;6.82;56.20;100978.47;5017114;28;20154;-76
2023/04/27 01:34:00;;;;;;;10.50;5.68;;;7.60;71.90;;;6.78;56.30;100969.19;5009859;28;20073;-75
2023/04/27 01:36:27;;;;;;;12.02;5.15;;;7.50;71.90;;;6.76;56.29;100976.50;5003313;28;20096;-77
2023/04/27 01:38:56;;;;;;;9.23;5.53;;;7.50;72.00;;;6.74;56.18;100981.19;5024071;28;20669;-76
2023/04/27 01:41:25;;;;;;;11.10;5.95;;;7.50;72.10;;;6.72;56.14;100989.28;5008344;28;20049;-78
2023/04/27 01:43:52;;;;;;;11.45;5.88;;;7.50;72.50;;;6.74;56.66;100986.47;5005553;28;20123;-78
2023/04/27 01:46:20;;;;;;;11.02;5.78;;;7.50;72.60;;;6.74;56.55;100990.97;5007778;28;20133;-77
2023/04/27 01:48:47;;;;;;;17.13;6.40;;;7.40;72.30;;;6.70;56.28;100999.25;5025370;28;20131;-77
2023/04/27 01:51:14;;;;;;;11.45;5.85;;;7.40;72.30;;;6.67;56.42;100996.91;5010720;28;20095;-78
2023/04/27 01:53:42;;;;;;;13.70;6.22;;;7.40;72.50;;;6.64;56.59;100986.69;5008117;28;20057;-77
2023/04/27 01:56:10;;;;;;;11.63;5.50;;;7.40;72.70;;;6.62;56.39;100995.78;5006932;28;20046;-78
2023/04/27 01:58:38;;;;;;;11.50;5.97;;;7.30;72.60;;;6.58;56.46;100991.84;4998261;28;20041;-76
2023/04/27 02:01:06;;;;;;;12.32;6.38;;;7.30;72.70;;;6.55;56.46;100995.66;4989131;28;20054;-76
2023/04/27 02:03:33;;;;;;;16.05;6.30;;;7.30;72.50;;;6.52;56.94;100998.66;4993255;28;20042;-77
2023/04/27 02:06:00;;;;;;;12.45;6.40;;;7.30;72.60;;;6.49;56.65;101006.97;4997278;28;20049;-77
2023/04/27 02:08:27;;;;;;;12.00;6.90;;;7.20;72.50;;;6.50;56.72;101021.03;5012512;28;20073;-77
2023/04/27 02:10:54;;;;;;;15.00;6.18;;;7.20;72.90;;;6.50;56.84;101008.59;4990427;28;20052;-76
2023/04/27 02:13:23;;;;;;;11.48;6.18;;;7.20;73.10;;;6.47;57.06;101016.88;5001011;28;20046;-76
2023/04/27 02:15:52;;;;;;;12.98;6.40;;;7.20;73.10;;;6.45;57.12;101008.28;5005830;28;20120;-76
2023/04/27 02:18:20;;;;;;;11.25;6.47;;;7.20;73.00;;;6.44;56.79;101009.25;5009332;28;20065;-78
2023/04/27 02:20:47;;;;;;;12.13;6.03;;;7.20;73.10;;;6.43;56.90;101007.63;4990216;28;20045;-78
2023/04/27 02:23:14;;;;;;;13.30;6.68;;;7.10;73.20;;;6.41;56.85;101006.97;5005653;28;20406;-77
2023/04/27 02:25:45;;;;;;;11.93;6.72;;;7.10;73.20;;;6.38;57.12;101002.00;4994197;28;20050;-76
2023/04/27 02:28:12;;;;;;;11.73;6.75;;;7.10;73.40;;;6.37;57.43;101000.34;5000601;28;20114;-77
2023/04/27 02:30:40;;;;;;;11.43;5.78;;;7.10;73.40;;;6.34;57.33;100998.88;5008318;28;20087;-76
2023/04/27 02:33:08;;;;;;;14.05;6.70;;;7.00;73.30;;;6.33;57.10;100996.41;4990669;28;20048;-78
2023/04/27 02:35:36;;;;;;;15.20;6.80;;;7.10;73.70;;;6.31;57.52;100990.47;5013101;28;20049;-76
2023/04/27 02:38:03;;;;;;;13.70;6.40;;;7.00;73.50;;;6.29;57.56;100987.13;4987544;28;20046;-77
2023/04/27 02:40:30;;;;;;;12.90;6.40;;;7.00;73.70;;;6.25;57.10;100991.97;5011679;28;20047;-77
2023/04/27 02:42:57;;;;;;;13.32;6.97;;;7.00;73.50;;;6.21;57.15;100998.59;4997015;28;20418;-77
2023/04/27 02:45:25;;;;;;;12.95;6.47;;;7.00;73.60;;;6.18;57.18;100991.78;5010716;28;20077;-76
2023/04/27 02:47:52;;;;;;;14.88;6.78;;;6.90;73.70;;;6.17;57.30;100995.44;4992996;28;20046;-78
2023/04/27 02:50:20;;;;;;;11.70;5.90;;;6.90;73.70;;;6.16;57.42;100992.97;4991025;28;20088;-76
2023/04/27 02:52:48;;;;;;;13.27;6.75;;;6.90;73.70;;;6.14;57.51;100992.31;5018809;28;20068;-79
2023/04/27 02:55:15;;;;;;;14.07;7.20;;;6.90;74.00;;;6.11;57.33;100993.50;5008040;28;20056;-77
2023/04/27 02:57:42;;;;;;;12.27;6.53;;;6.90;73.90;;;6.11;57.36;100995.31;5031038;28;20424;-77
2023/04/27 03:00:11;;;;;;;12.13;6.38;;;6.80;73.90;;;6.09;57.14;100994.63;5030429;28;20828;-78
2023/04/27 03:02:38;;;;;;;11.73;6.72;;;6.80;73.80;;;6.06;57.56;100995.81;5028911;28;20045;-75
2023/04/27 03:05:06;;;;;;;11.38;6.43;;;6.80;73.90;;;6.04;57.47;101004.91;5030436;28;20057;-78
2023/04/27 03:07:35;;;;;;;13.32;7.32;;;6.80;74.10;;;5.99;57.41;100989.53;5012290;28;20049;-76
2023/04/27 03:10:04;;;;;;;14.20;6.55;;;6.70;74.10;;;5.98;57.89;100979.94;5034152;28;20073;-78
2023/04/27 03:12:31;;;;;;;13.30;6.93;;;6.70;74.00;;;5.95;57.61;100977.63;5027231;28;20132;-77
2023/04/27 03:15:00;;;;;;;13.95;7.32;;;6.70;74.00;;;5.91;57.96;100973.66;5025878;28;20045;-75
2023/04/27 03:17:27;;;;;;;12.60;7.07;;;6.90;74.30;;;5.90;58.02;100978.13;5008557;28;20053;-77
2023/04/27 03:19:54;;;;;;;14.10;7.03;;;6.60;74.20;;;5.89;57.57;100975.63;5029204;28;20041;-77
2023/04/27 03:22:25;;;;;;;13.07;6.40;;;6.60;74.30;;;5.87;57.94;100967.84;5028835;28;20045;-77
2023/04/27 03:24:53;;;;;;;14.55;6.60;;;6.60;74.20;;;5.86;58.00;100976.78;5027658;28;20124;-76
2023/04/27 03:27:20;;;;;;;14.23;6.85;;;6.60;74.30;;;5.84;57.53;100972.66;5026461;28;20111;-77
2023/04/27 03:29:52;;;;;;;12.65;6.95;;;6.60;74.10;;;5.81;57.65;100973.00;5026269;28;20119;-77
2023/04/27 03:32:19;;;;;;;13.23;7.15;;;6.50;74.30;;;5.79;57.83;100975.78;5023302;28;20107;-76
2023/04/27 03:34:47;;;;;;;12.40;6.70;;;6.50;74.30;;;5.78;57.85;100968.84;5025870;28;20045;-76
2023/04/27 03:37:14;;;;;;;12.88;7.38;;;6.50;74.40;;;5.75;57.59;100982.41;5024092;28;20266;-76
2023/04/27 03:39:43;;;;;;;13.40;7.00;;;6.50;74.40;;;5.75;57.71;100978.94;5011249;28;20056;-76
2023/04/27 03:42:11;;;;;;;13.65;6.97;;;6.40;74.30;;;5.74;57.64;100988.69;5022766;28;20053;-78
2023/04/27 03:44:39;;;;;;;11.73;7.00;;;6.40;74.30;;;5.72;58.13;100992.53;5023518;28;20060;-76
2023/04/27 03:47:08;;;;;;;14.15;7.18;;;6.40;74.20;;;5.65;57.74;100993.16;5026875;28;20430;-77
2023/04/27 03:49:37;;;;;;;14.35;7.43;;;6.40;74.10;;;5.61;57.82;100994.50;5006570;28;20053;-78
2023/04/27 03:52:04;;;;;;;13.60;6.95;;;6.40;74.10;;;5.61;57.63;100991.88;5009854;28;20050;-79
2023/04/27 03:54:32;;;;;;;11.05;6.13;;;6.40;74.20;;;5.61;57.70;100991.88;5022650;28;20045;-81
2023/04/27 03:57:01;;;;;;;13.07;7.03;;;6.40;74.30;;;5.60;57.81;100992.84;5007901;28;20049;-84
2023/04/27 03:59:30;;;;;;;16.73;6.75;;;6.30;74.40;;;5.55;57.96;100992.50;5024860;28;20034;-82
2023/04/27 04:01:57;;;;;;;14.32;6.60;;;6.30;74.50;;;5.55;57.97;100991.69;5007866;28;20502;-83
2023/04/27 04:04:25;;;;;;;11.00;6.47;;;6.30;74.60;;;5.54;58.35;100992.69;5019121;28;20092;-82
2023/04/27 04:06:52;;;;;;;12.65;6.70;;;6.30;74.70;;;5.52;58.20;101000.78;5007484;28;20541;-81
2023/04/27 04:09:19;;;;;;;12.43;6.53;;;6.30;74.90;;;5.51;58.17;101000.94;5006843;28;20716;-83
2023/04/27 04:11:46;;;;;;;11.38;6.80;;;6.20;74.70;;;5.48;58.25;101007.41;5004926;28;20140;-83
2023/04/27 04:14:15;;;;;;;16.02;6.55;;;6.20;74.60;;;5.47;58.28;101011.03;5007974;28;20045;-81
2023/04/27 04:16:44;;;;;;;13.75;6.75;;;6.20;74.90;;;5.46;57.98;101003.25;5025229;28;20073;-82
2023/04/27 04:19:11;;;;;;;12.57;6.43;;;6.20;74.70;;;5.44;58.30;101006.06;4997303;28;20395;-83
2023/04/27 04:21:38;;;;;;;12.80;5.85;;;6.20;74.80;;;5.41;58.29;101003.75;5022603;28;20054;-85
2023/04/27 04:24:07;;;;;;;12.52;6.78;;;6.10;75.00;;;5.41;58.55;101016.97;5022885;28;20072;-81
2023/04/27 04:26:34;;;;;;;13.95;6.30;;;6.10;75.20;;;5.40;58.41;101015.31;5006859;28;20052;-83
2023/04/27 04:29:01;;;;;;;13.00;6.28;;;6.10;75.00;;;5.39;58.55;101022.44;5007397;28;20898;-81
2023/04/27 04:31:28;;;;;;;14.05;6.70;;;6.10;75.00;;;5.37;58.40;101018.31;5023263;28;20054;-82
2023/04/27 04:33:57;;;;;;;12.25;6.90;;;6.10;75.20;;;5.36;58.58;101017.47;5003586;28;20053;-84
2023/04/27 04:36:24;;;;;;;11.73;6.82;;;6.10;75.20;;;5.38;58.38;101017.31;5015011;28;20129;-85
2023/04/27 04:38:55;;;;;;;11.95;6.57;;;6.10;75.30;;;5.39;58.56;101024.25;5002456;28;20049;-83
2023/04/27 04:41:23;;;;;;;14.18;6.78;;;6.10;75.60;;;5.39;59.15;101018.97;5020506;28;20046;-83
2023/04/27 04:43:51;;;;;;;17.45;7.22;;;6.10;75.80;;;5.42;59.16;101016.81;5005573;28;20049;-83
2023/04/27 04:46:21;;;;;;;12.27;7.32;;;6.10;75.90;;;5.59;58.72;101025.59;5003559;28;20391;-80
2023/04/27 04:48:48;;;;;;;13.00;6.28;;;6.20;75.60;;;5.76;58.71;101025.56;5005210;28;20056;-84
2023/04/27 04:51:16;;;;;;;12.60;7.10;;;6.40;75.10;;;5.86;58.38;101021.78;5018218;28;20537;-81
2023/04/27 04:53:44;;;;;;;12.52;6.78;;;6.50;74.90;;;5.92;58.37;101022.97;5040630;22;20050;-77
2023/04/27 04:56:13;;;;;;;12.15;6.15;;;6.60;74.70;;;6.00;58.27;101015.00;5021517;28;20046;-78
2023/04/27 04:58:41;;;;;;;12.07;6.55;;;6.70;74.90;;;6.09;57.77;101008.69;5006671;28;20468;-77
2023/04/27 05:01:08;;;;;;;10.88;6.85;;;6.80;74.60;;;6.21;57.63;101016.31;5022864;28;20033;-77
2023/04/27 05:03:35;;;;;;;11.40;6.28;;;6.90;74.60;;;6.33;58.01;101007.81;5007046;28;20792;-77
2023/04/27 05:06:02;;;;;;;11.50;6.90;;;7.00;74.50;;;6.45;57.85;101018.88;5027535;28;20075;-77
2023/04/27 05:08:31;;;;;;;15.35;7.63;;;7.10;74.40;;;6.54;57.66;101019.66;5021315;28;20128;-77
2023/04/27 05:10:58;;;;;;;15.25;7.95;;;7.20;74.30;;;6.62;57.82;101020.47;5025624;28;20042;-76
2023/04/27 05:13:25;;;;;;;14.95;7.60;;;7.30;74.30;;;6.68;58.06;101022.41;5028172;28;20068;-78
2023/04/27 05:15:53;;;;;;;13.93;7.30;;;7.40;74.30;;;6.77;58.07;101023.22;5020570;28;20056;-79
2023/04/27 05:18:20;;;;;;;20.40;8.23;;;7.50;74.30;;;6.84;57.87;101026.03;5027042;28;20041;-76
2023/04/27 05:20:47;;;;;;;13.95;6.70;;;7.60;74.30;;;6.90;57.63;101033.28;5025057;28;20120;-77
2023/04/27 05:23:14;;;;;;;15.48;7.13;;;7.60;74.30;;;6.98;57.86;101033.25;5026893;28;20555;-77
2023/04/27 05:25:43;;;;;;;16.52;7.75;;;7.70;74.50;;;7.06;57.79;101037.66;5015250;28;20124;-77
2023/04/27 05:28:10;;;;;;;16.90;8.90;;;7.70;74.60;;;7.13;57.94;101033.34;5027234;28;20055;-78
2023/04/27 05:30:38;;;;;;;15.98;8.98;;;7.80;74.80;;;7.21;57.77;101043.88;5023615;28;20038;-79
2023/04/27 05:33:08;;;;;;;15.15;8.70;;;7.90;74.70;;;7.27;57.83;101051.16;5019895;28;20049;-78
2023/04/27 05:35:35;;;;;;;17.85;9.18;;;7.90;74.80;;;7.37;57.96;101048.25;5018923;28;20044;-80
2023/04/27 05:38:03;;;;;;;15.90;9.35;;;8.00;74.70;;;7.45;57.85;101050.84;5026387;28;20124;-80
2023/04/27 05:40:30;;;;;;;19.85;10.57;;;8.00;74.70;;;7.52;57.40;101053.66;5028068;28;20460;-80
2023/04/27 05:43:02;;;;;;;26.30;10.02;;;8.10;74.50;;;7.59;57.92;101055.41;5026416;28;20124;-80
2023/04/27 05:45:29;;;;;;;18.45;9.70;;;8.20;74.80;;;7.65;57.46;101060.00;5019808;28;20030;-79
2023/04/27 05:47:56;;;;;;;19.90;10.57;;;8.30;74.20;;;7.71;57.54;101050.50;5021014;28;20414;-78
2023/04/27 05:50:23;;;;;;;20.63;9.80;;;8.40;74.20;;;7.77;57.60;101047.16;5025908;28;20400;-78
2023/04/27 05:52:50;;;;;;;19.38;9.43;;;8.40;74.30;;;7.84;57.71;101057.88;5023207;28;20037;-81
2023/04/27 05:55:18;;;;;;;20.67;9.77;;;8.50;74.60;;;7.91;57.50;101056.16;5025976;28;20121;-80
2023/04/27 05:57:45;;;;;;;17.08;8.77;;;8.50;74.30;;;7.97;57.08;101064.22;5024166;28;20057;-80
2023/04/27 06:00:16;;;;;;;18.55;9.82;;;8.60;73.80;;;8.05;56.60;101063.31;5027365;28;20037;-80
2023/04/27 06:02:43;;;;;;;24.10;9.35;;;8.70;73.60;;;8.13;56.64;101065.91;5025401;28;20076;-80
2023/04/27 06:05:10;;;;;;;20.67;9.18;;;8.70;73.70;;;8.20;56.69;101069.50;5030495;28;20049;-80
2023/04/27 06:07:38;;;;;;;21.45;9.10;;;8.80;73.50;;;8.25;56.33;101075.09;5030870;28;20033;-80
2023/04/27 06:10:06;;;;;;;20.33;8.80;;;8.90;73.20;;;8.32;56.32;101067.22;5032216;28;20534;-81
2023/04/27 06:12:34;;;;;;;19.52;9.07;;;8.90;73.10;;;8.39;55.56;101070.81;5024494;28;20049;-80
2023/04/27 06:15:02;;;;;;;18.65;8.57;;;9.00;72.10;;;8.41;55.11;101075.97;5030153;28;20037;-81
2023/04/27 06:17:31;;;;;;;16.45;8.50;;;9.00;71.50;;;8.41;55.37;101074.13;5026492;28;20593;-79
2023/04/27 06:19:58;;;;;;;15.02;8.88;;;9.10;71.90;;;8.48;55.57;101075.06;5031523;28;20060;-81
2023/04/27 06:22:26;;;;;;;18.05;9.02;;;9.10;72.00;;;8.59;55.59;101065.81;5029763;28;20045;-79
2023/04/27 06:24:53;;;;;;;15.20;8.57;;;9.20;71.90;;;8.71;55.55;101074.16;5011614;28;20525;-80
2023/04/27 06:27:20;;;;;;;18.23;8.65;;;9.30;72.10;;;8.83;54.86;101066.53;5027454;28;20068;-80
2023/04/27 06:29:47;;;;;;;14.27;8.20;;;9.40;71.10;;;8.95;54.30;101063.22;5008409;28;20047;-80
2023/04/27 06:32:14;;;;;;;18.05;8.90;;;9.60;70.50;;;9.09;54.11;101066.03;5026323;28;20149;-79
2023/04/27 06:34:43;;;;;;;17.88;8.63;;;9.70;70.40;;;9.18;54.09;101063.09;5008046;28;20675;-80
2023/04/27 06:37:10;;;;;;;15.55;7.25;;;9.90;70.30;;;9.32;53.59;101065.88;5021474;28;20041;-80
2023/04/27 06:39:37;;;;;;;13.38;7.60;;;10.00;69.40;;;9.37;52.38;101069.66;5031428;28;20080;-79
2023/04/27 06:42:05;;;;;;;17.45;7.28;;;10.00;67.90;;;9.49;52.46;101068.13;5027537;28;20049;-80
2023/04/27 06:44:32;;;;;;;14.88;6.85;;;10.20;68.00;;;9.62;52.07;101067.44;5009697;28;20049;-79
2023/04/27 06:47:00;;;;;;;13.98;7.20;;;10.30;67.50;;;9.74;51.74;101071.22;5029032;28;20053;-80
2023/04/27 06:49:27;;;;;;;17.75;6.90;;;10.40;67.00;;;9.84;50.83;101059.44;5031153;28;20115;-80
2023/04/27 06:51:56;;;;;;;12.57;6.13;;;10.50;65.80;;;9.97;51.46;101056.88;5029789;28;20136;-79
2023/04/27 06:54:23;;;;;;;12.68;6.22;;;10.60;66.60;;;10.06;51.01;101061.88;5035982;28;20069;-81
2023/04/27 06:56:51;;;;;;;13.95;5.93;;;10.70;66.00;;;10.20;50.21;101053.97;5030885;28;20665;-79
2023/04/27 06:59:18;;;;;;;13.95;5.55;;;10.90;65.20;;;10.32;49.82;101055.94;5036757;28;20103;-79
2023/04/27 07:01:45;;;;;;;10.02;5.47;;;11.00;64.50;;;10.42;48.75;101044.09;5030380;28;20052;-80
2023/04/27 07:04:12;;;;;;;9.93;5.25;;;11.10;63.00;;;10.54;49.03;101054.03;5036417;28;20414;-79
2023/04/27 07:06:39;;;;;;;10.45;5.07;;;11.20;63.60;;;10.68;49.50;101052.25;5027480;28;20041;-79
2023/04/27 07:09:08;;;;;;;9.52;4.47;;;11.40;64.10;;;10.77;47.59;101048.41;5010974;28;20151;-80
2023/04/27 07:11:35;;;;;;;8.80;4.63;;;11.50;61.70;;;10.83;46.47;101050.28;5022600;28;20037;-78
2023/04/27 07:14:02;;;;;;;10.70;4.70;;;11.50;60.10;;;10.90;45.95;101047.66;5024007;28;20077;-79
2023/04/27 07:16:30;;;;;;;9.82;4.80;;;11.60;59.60;;;10.95;46.63;101044.38;5028250;28;20041;-79
2023/04/27 07:18:57;;;;;;;10.40;5.15;;;11.70;60.40;;;10.90;45.17;101036.16;5029985;28;20087;-80
2023/04/27 07:21:24;;;;;;;13.52;5.72;;;11.70;58.40;;;10.93;46.00;101043.72;5034135;28;20033;-78
2023/04/27 07:23:51;;;;;;;13.80;4.82;;;11.70;59.20;;;10.99;45.62;101042.97;5024841;28;20111;-80
2023/04/27 07:26:20;;;;;;;12.82;5.28;;;11.70;58.70;;;11.01;45.28;101046.25;5030060;28;20045;-80
2023/04/27 07:28:47;;;;;;;9.07;4.80;;;11.70;58.10;;;11.07;45.57;101048.09;5029622;28;20133;-79
2023/04/27 07:31:14;;;;;;;13.18;5.18;;;11.80;58.60;;;11.20;46.38;101042.00;5025020;28;20065;-80
2023/04/27 07:33:42;;;;;;;14.18;4.80;;;11.90;59.60;;;11.30;45.71;101043.25;5034964;28;20064;-79
2023/04/27 07:36:09;;;;;;;13.02;4.65;;;12.00;58.70;;;11.35;44.85;101040.78;5035469;28;20516;-79
2023/04/27 07:38:37;;;;;;;8.15;4.50;;;12.10;57.70;;;11.36;44.72;101046.97;5030075;28;20580;-79
2023/04/27 07:41:04;;;;;;;11.80;4.90;;;12.10;57.30;;;11.37;44.91;101047.78;5027947;28;20046;-79
2023/04/27 07:43:33;;;;;;;10.07;4.13;;;12.10;57.30;;;11.48;44.71;101052.56;5016699;28;20132;-78
2023/04/27 07:46:00;;;;;;;10.80;4.93;;;12.20;57.00;;;11.53;44.26;101048.25;5029488;28;20506;-79
2023/04/27 07:48:28;;;;;;;12.60;4.65;;;12.30;56.50;;;11.61;44.52;101044.53;5030401;28;20044;-80
2023/04/27 07:50:56;;;;;;;10.50;4.30;;;12.30;57.10;;;11.66;44.20;101036.72;5014145;28;20044;-77
2023/04/27 07:53:23;;;;;;;8.63;4.13;;;12.40;56.50;;;11.66;43.52;101043.91;5015371;28;20042;-82
2023/04/27 07:55:50;;;;;;;12.38;4.60;;;12.40;55.30;;;11.75;43.00;101051.53;5027841;28;20041;-79
2023/04/27 07:58:18;;;;;;;11.98;4.35;;;12.50;54.90;;;11.79;43.08;101051.97;5026003;28;20493;-80
2023/04/27 08:00:47;;;;;;;9.18;4.70;;;12.60;54.70;;;11.80;42.69;101046.41;5023818;28;20034;-77
2023/04/27 08:03:14;;;;;;;11.98;5.40;;;12.50;54.20;;;11.65;41.84;101048.44;5026079;28;20494;-79
2023/04/27 08:05:41;;;;;;;12.65;5.28;;;12.40;53.30;;;11.58;42.31;101055.66;5018132;28;20041;-80
2023/04/27 08:08:08;;;;;;;9.48;4.88;;;12.40;53.50;;;11.62;42.69;101050.72;5027713;28;20069;-80
2023/04/27 08:10:37;;;;;;;12.30;5.35;;;12.40;54.20;;;11.49;41.75;101040.84;5020710;28;20120;-79
2023/04/27 08:13:05;;;;;;;13.00;4.90;;;12.30;54.00;;;11.48;42.40;101045.34;5017838;28;20125;-78
2023/04/27 08:15:32;;;;;;;8.27;4.47;;;12.30;53.70;;;11.58;43.01;101040.44;5024668;28;20049;-79
2023/04/27 08:18:00;;;;;;;10.90;4.85;;;12.30;54.70;;;11.67;42.34;101045.59;5028972;28;20480;-79
2023/04/27 08:20:28;;;;;;;13.68;4.70;;;12.40;53.60;;;11.74;42.43;101028.53;5029113;28;20136;-79
2023/04/27 08:22:55;;;;;;;11.90;4.90;;;12.50;53.70;;;11.79;43.53;101026.06;5010843;28;20145;-79
2023/04/27 08:25:22;;;;;;;9.55;4.20;;;12.50;55.40;;;11.85;44.88;101021.75;5014239;28;20124;-80
2023/04/27 08:27:49;;;;;;;10.68;5.00;;;12.60;57.00;;;11.93;45.25;101023.41;5029192;28;20042;-79
2023/04/27 08:30:17;;;;;;;10.65;4.32;;;12.70;57.70;;;11.98;43.44;101037.00;5021585;28;20120;-80
2023/04/27 08:32:44;;;;;;;9.48;4.72;;;12.70;55.10;;;11.97;43.30;101021.97;5028138;28;20116;-79
2023/04/27 08:35:13;;;;;;;8.60;4.43;;;12.70;55.00;;;12.01;42.81;101025.91;5008562;28;20037;-79
2023/04/27 08:37:40;;;;;;;12.25;4.38;;;12.70;54.30;;;12.01;41.62;101017.88;5028919;28;20037;-79
2023/04/27 08:40:09;;;;;;;7.43;3.97;;;12.70;53.60;;;12.05;42.40;101021.75;5028858;28;20049;-80
2023/04/27 08:42:37;;;;;;;9.23;4.28;;;12.80;53.50;;;12.08;41.58;101010.66;5029078;28;20120;-80
2023/04/27 08:45:09;;;;;;;8.52;4.50;;;12.80;53.30;;;12.13;42.43;101016.19;5016037;28;20068;-79
2023/04/27 08:47:38;;;;;;;15.10;4.57;;;12.90;53.80;;;12.16;43.26;101012.31;5023353;28;20046;-78
2023/04/27 08:50:06;;;;;;;9.32;3.90;;;12.90;54.90;;;12.06;40.10;101015.41;5024774;28;20179;-80
2023/04/27 08:52:37;;;;;;;10.65;3.88;;;12.80;51.80;;;11.96;40.21;101009.66;5015594;28;20041;-79
2023/04/27 08:55:06;;;;;;;9.63;4.25;;;12.70;51.80;;;11.81;40.17;101013.31;5028153;28;20053;-79
2023/04/27 08:57:33;;;;;;;7.28;3.60;;;12.60;51.80;;;11.72;40.21;101011.06;5020845;28;20069;-79
2023/04/27 09:00:00;;;;;;;12.88;4.30;;;12.50;51.60;;;11.73;40.75;101010.03;5028557;28;20056;-79
2023/04/27 09:02:29;;;;;;;8.68;3.88;;;12.50;52.20;;;11.72;40.86;101014.56;5024694;28;20051;-79
2023/04/27 09:04:56;;;;;;;12.48;4.57;;;12.50;52.60;;;11.77;43.91;101009.41;5028706;28;20048;-79
2023/04/27 09:07:23;;;;;;;10.82;4.18;;;12.50;55.70;;;11.81;43.11;101004.50;5020994;28;20116;-79
2023/04/27 09:10:03;;;;;;;9.13;4.55;;;12.60;54.20;;;11.80;41.52;100997.47;5028380;28;20136;-78
2023/04/27 09:12:30;;;;;;;10.95;4.38;;;12.60;53.40;;;11.78;40.80;101000.38;5014960;28;20046;-80
2023/04/27 09:14:59;;;;;;;8.50;4.25;;;12.60;52.80;;;11.77;41.09;101000.59;5028350;28;20049;-79
2023/04/27 09:17:27;;;;;;;7.93;4.25;;;12.50;52.70;;;11.73;41.31;101000.16;5021999;28;20112;-79
2023/04/27 09:20:09;;;;;;;8.20;4.32;;;12.50;53.00;;;11.77;41.54;101004.06;5027432;28;20127;-79
2023/04/27 09:22:46;;;;;;;11.93;4.07;;;12.50;53.50;;;11.74;40.97;101001.81;5023897;28;20128;-79
2023/04/27 09:25:26;;;;;;;10.00;3.95;;;12.50;52.70;;;11.74;41.29;100992.97;5018297;28;20045;-77
2023/04/27 09:27:53;;;;;;;9.20;3.53;;;12.50;53.00;;;11.77;41.26;100995.25;5010605;28;20746;-79
2023/04/27 09:30:21;;;;;;;11.50;4.45;;;12.50;53.00;;;11.84;41.52;100999.56;5018935;28;20141;-78
2023/04/27 09:32:53;;;;;;;9.88;4.18;;;12.60;53.30;;;11.83;41.11;100994.44;5025075;28;20041;-78
2023/04/27 09:35:28;;;;;;;10.23;3.58;;;12.50;52.80;;;11.80;40.40;100987.59;5030453;28;20560;-79
2023/04/27 09:37:56;;;;;;;11.65;4.10;;;12.60;51.80;;;11.77;40.39;100989.88;5017935;28;20669;-79
2023/04/27 09:40:28;;;;;;;12.35;4.03;;;12.50;51.90;;;11.76;40.07;100986.41;5020848;28;20124;-80
2023/04/27 09:42:56;;;;;;;7.72;3.58;;;12.50;51.60;;;11.80;41.40;100982.25;5030573;28;20287;-79
2023/04/27 09:45:24;;;;;;;9.05;3.80;;;12.50;53.00;;;11.80;40.15;100982.25;5025091;28;20067;-80
2023/04/27 09:47:52;;;;;;;7.05;3.30;;;12.60;51.40;;;11.78;39.99;100992.34;5032512;28;20089;-80
2023/04/27 09:50:20;;;;;;;6.55;3.65;;;12.50;51.30;;;11.78;40.04;100980.84;5031650;28;20080;-79
2023/04/27 09:52:47;;;;;;;11.93;3.83;;;12.60;51.40;;;11.80;39.43;100982.25;5032006;28;20103;-80
2023/04/27 09:55:19;;;;;;;8.27;3.60;;;12.50;50.60;;;11.80;40.72;100974.25;5031521;28;20084;-79
2023/04/27 09:57:58;;;;;;;7.80;3.58;;;12.60;52.20;;;11.80;40.27;100974.25;5032014;28;20124;-80
2023/04/27 10:00:42;;;;;;;7.95;3.65;;;12.60;51.40;;;11.83;40.29;100978.41;5028737;28;20045;-79
2023/04/27 10:03:22;;;;;;;10.98;4.47;;;12.60;51.70;;;11.82;40.88;100974.91;5021586;28;20050;-80
2023/04/27 10:06:47;;;;;;;8.93;3.83;;;12.60;52.30;;;11.82;41.21;100974.91;5031133;28;20599;-80
2023/04/27 10:09:16;;;;;;;10.52;4.32;;;12.60;52.50;;;11.87;40.09;100968.94;5024733;28;20120;-81
2023/04/27 10:11:46;;;;;;;9.93;3.83;;;12.70;51.30;;;11.91;39.84;100970.19;5031740;28;20045;-80
2023/04/27 10:14:20;;;;;;;7.32;3.25;;;12.70;51.10;;;11.98;39.45;100967.50;5030263;28;20053;-81
2023/04/27 10:16:51;;;;;;;7.43;3.80;;;12.70;50.60;;;12.01;38.92;100977.78;5031839;28;20486;-81
2023/04/27 10:19:20;;;;;;;8.43;4.35;;;12.80;49.80;;;11.99;37.72;100971.78;5028516;28;20045;-80